sensor_id;sensor_type;location;lat;lon;timestamp;temperature;humidity
52439;DHT22;38359;53.150;6.504;2022-12-10T00:07:16;-1.00;99.90
52439;DHT22;38359;53.150;6.504;2022-12-10T00:17:42;-1.00;99.90
52439;DHT22;38359;53.150;6.504;2022-12-10T00:28:08;-1.20;99.90
52439;DHT22;38359;53.150;6.504;2022-12-10T00:38:34;-1.50;99.90
52439;DHT22;38359;53.150;6.504;2022-12-10T00:49:00;-1.20;99.90
52439;DHT22;38359;53.150;6.504;2022-12-10T00:59:26;-1.20;99.90
52439;DHT22;38359;53.150;6.504;2022-12-10T01:09:55;-1.20;99.90
52439;DHT22;38359;53.150;6.504;2022-12-10T01:20:21;-1.40;99.90
52439;DHT22;38359;53.150;6.504;2022-12-10T01:30:47;-1.00;99.90
52439;DHT22;38359;53.150;6.504;2022-12-10T01:41:17;-1.00;99.90
52439;DHT22;38359;53.150;6.504;2022-12-10T01:51:50;-1.20;99.90
52439;DHT22;38359;53.150;6.504;2022-12-10T02:02:42;-1.20;99.90
52439;DHT22;38359;53.150;6.504;2022-12-10T02:23:51;-1.60;99.90
52439;DHT22;38359;53.150;6.504;2022-12-10T02:34:22;-0.50;99.90
52439;DHT22;38359;53.150;6.504;2022-12-10T02:44:49;-1.70;99.90
52439;DHT22;38359;53.150;6.504;2022-12-10T02:55:15;-1.70;99.90
52439;DHT22;38359;53.150;6.504;2022-12-10T03:05:45;-1.50;99.90
52439;DHT22;38359;53.150;6.504;2022-12-10T03:16:19;-1.80;99.90
52439;DHT22;38359;53.150;6.504;2022-12-10T03:26:48;-1.60;99.90
52439;DHT22;38359;53.150;6.504;2022-12-10T03:37:14;-1.70;99.90
52439;DHT22;38359;53.150;6.504;2022-12-10T03:47:41;-1.60;99.90
52439;DHT22;38359;53.150;6.504;2022-12-10T03:58:07;-1.90;99.90
52439;DHT22;38359;53.150;6.504;2022-12-10T04:08:33;-1.40;99.90
52439;DHT22;38359;53.150;6.504;2022-12-10T04:19:14;-1.50;99.90
52439;DHT22;38359;53.150;6.504;2022-12-10T04:29:41;-1.70;99.90
52439;DHT22;38359;53.150;6.504;2022-12-10T04:40:07;-1.80;99.90
52439;DHT22;38359;53.150;6.504;2022-12-10T04:50:33;-2.20;99.90
52439;DHT22;38359;53.150;6.504;2022-12-10T05:01:05;-2.00;99.90
52439;DHT22;38359;53.150;6.504;2022-12-10T05:11:33;-2.00;99.90
52439;DHT22;38359;53.150;6.504;2022-12-10T05:22:00;-1.50;99.90
52439;DHT22;38359;53.150;6.504;2022-12-10T05:32:44;-1.30;99.90
52439;DHT22;38359;53.150;6.504;2022-12-10T05:43:10;-1.40;99.90
52439;DHT22;38359;53.150;6.504;2022-12-10T05:53:36;-1.30;99.90
52439;DHT22;38359;53.150;6.504;2022-12-10T06:04:04;-1.10;99.90
52439;DHT22;38359;53.150;6.504;2022-12-10T06:14:30;-1.40;99.90
52439;DHT22;38359;53.150;6.504;2022-12-10T06:24:56;-1.10;99.90
52439;DHT22;38359;53.150;6.504;2022-12-10T06:35:22;-1.20;99.90
52439;DHT22;38359;53.150;6.504;2022-12-10T06:45:48;-1.50;99.90
52439;DHT22;38359;53.150;6.504;2022-12-10T06:56:16;-1.30;99.90
52439;DHT22;38359;53.150;6.504;2022-12-10T07:06:43;-1.30;99.90
52439;DHT22;38359;53.150;6.504;2022-12-10T07:17:08;-1.40;99.90
52439;DHT22;38359;53.150;6.504;2022-12-10T07:27:34;-1.40;99.90
52439;DHT22;38359;53.150;6.504;2022-12-10T07:38:00;-1.20;99.90
52439;DHT22;38359;53.150;6.504;2022-12-10T07:48:26;-1.40;99.90
52439;DHT22;38359;53.150;6.504;2022-12-10T07:58:52;-1.50;99.90
52439;DHT22;38359;53.150;6.504;2022-12-10T08:09:19;-1.70;99.90
52439;DHT22;38359;53.150;6.504;2022-12-10T08:19:44;-1.50;99.90
52439;DHT22;38359;53.150;6.504;2022-12-10T08:30:10;-1.20;99.90
52439;DHT22;38359;53.150;6.504;2022-12-10T08:40:40;-1.40;99.90
52439;DHT22;38359;53.150;6.504;2022-12-10T08:51:08;-1.40;99.90
52439;DHT22;38359;53.150;6.504;2022-12-10T09:01:35;-1.70;99.90
52439;DHT22;38359;53.150;6.504;2022-12-10T09:12:01;-1.90;99.90
52439;DHT22;38359;53.150;6.504;2022-12-10T09:22:28;-1.60;99.90
52439;DHT22;38359;53.150;6.504;2022-12-10T09:32:54;-1.40;99.90
52439;DHT22;38359;53.150;6.504;2022-12-10T09:54:32;-1.90;99.90
52439;DHT22;38359;53.150;6.504;2022-12-10T10:15:37;-1.30;99.90
52439;DHT22;38359;53.150;6.504;2022-12-10T10:26:06;-1.50;99.90
52439;DHT22;38359;53.150;6.504;2022-12-10T10:36:36;-1.10;99.90
52439;DHT22;38359;53.150;6.504;2022-12-10T10:47:26;-1.10;99.90
52439;DHT22;38359;53.150;6.504;2022-12-10T10:57:54;-0.90;99.90
52439;DHT22;38359;53.150;6.504;2022-12-10T11:08:20;-1.10;99.90
52439;DHT22;38359;53.150;6.504;2022-12-10T11:18:59;-0.90;99.90
52439;DHT22;38359;53.150;6.504;2022-12-10T11:40:38;-0.90;99.90
52439;DHT22;38359;53.150;6.504;2022-12-10T12:14:01;-0.50;99.90
52439;DHT22;38359;53.150;6.504;2022-12-10T12:24:36;-0.40;99.90
52439;DHT22;38359;53.150;6.504;2022-12-10T12:35:12;-0.50;99.90
52439;DHT22;38359;53.150;6.504;2022-12-10T12:45:54;-0.40;99.90
52439;DHT22;38359;53.150;6.504;2022-12-10T13:18:33;-0.40;99.90
52439;DHT22;38359;53.150;6.504;2022-12-10T13:29:24;0.00;99.90
52439;DHT22;38359;53.150;6.504;2022-12-10T13:40:11;-0.40;99.90
52439;DHT22;38359;53.150;6.504;2022-12-10T14:13:10;-0.20;99.90
52439;DHT22;38359;53.150;6.504;2022-12-10T14:23:47;0.00;99.90
52439;DHT22;38359;53.150;6.504;2022-12-10T14:34:17;-0.10;99.90
52439;DHT22;38359;53.150;6.504;2022-12-10T14:44:53;0.00;99.90
52439;DHT22;38359;53.150;6.504;2022-12-10T14:55:23;-0.20;99.90
52439;DHT22;38359;53.150;6.504;2022-12-10T15:05:57;-0.10;99.90
52439;DHT22;38359;53.150;6.504;2022-12-10T15:16:45;0.60;99.90
52439;DHT22;38359;53.150;6.504;2022-12-10T15:27:23;-0.10;99.90
52439;DHT22;38359;53.150;6.504;2022-12-10T15:37:52;0.00;99.90
52439;DHT22;38359;53.150;6.504;2022-12-10T15:48:22;0.10;99.90
52439;DHT22;38359;53.150;6.504;2022-12-10T15:58:49;0.50;99.90
52439;DHT22;38359;53.150;6.504;2022-12-10T16:09:15;0.10;99.90
52439;DHT22;38359;53.150;6.504;2022-12-10T16:19:40;0.30;99.90
52439;DHT22;38359;53.150;6.504;2022-12-10T16:31:02;0.10;99.90
52439;DHT22;38359;53.150;6.504;2022-12-10T16:41:23;0.20;99.90
52439;DHT22;38359;53.150;6.504;2022-12-10T16:51:49;0.50;99.90
52439;DHT22;38359;53.150;6.504;2022-12-10T17:02:16;0.00;99.90
52439;DHT22;38359;53.150;6.504;2022-12-10T17:12:43;0.00;99.90
52439;DHT22;38359;53.150;6.504;2022-12-10T17:23:08;-0.10;99.90
52439;DHT22;38359;53.150;6.504;2022-12-10T17:33:35;0.00;99.90
52439;DHT22;38359;53.150;6.504;2022-12-10T17:44:00;-0.20;99.90
52439;DHT22;38359;53.150;6.504;2022-12-10T17:54:26;-0.20;99.90
52439;DHT22;38359;53.150;6.504;2022-12-10T18:04:52;-0.30;99.90
52439;DHT22;38359;53.150;6.504;2022-12-10T18:15:18;-0.50;99.90
52439;DHT22;38359;53.150;6.504;2022-12-10T18:25:45;-0.30;99.90
52439;DHT22;38359;53.150;6.504;2022-12-10T18:36:25;-0.40;99.90
52439;DHT22;38359;53.150;6.504;2022-12-10T18:46:55;-0.30;99.90
52439;DHT22;38359;53.150;6.504;2022-12-10T18:57:22;-0.60;99.90
52439;DHT22;38359;53.150;6.504;2022-12-10T19:07:48;-0.30;99.90
52439;DHT22;38359;53.150;6.504;2022-12-10T19:18:15;-0.10;99.90
52439;DHT22;38359;53.150;6.504;2022-12-10T19:28:41;-0.40;99.90
52439;DHT22;38359;53.150;6.504;2022-12-10T19:39:18;-0.50;99.90
52439;DHT22;38359;53.150;6.504;2022-12-10T19:49:45;-0.50;99.90
52439;DHT22;38359;53.150;6.504;2022-12-10T20:00:20;-0.50;99.90
52439;DHT22;38359;53.150;6.504;2022-12-10T20:10:50;-0.50;99.90
52439;DHT22;38359;53.150;6.504;2022-12-10T20:21:17;-0.70;99.90
52439;DHT22;38359;53.150;6.504;2022-12-10T20:31:43;-0.70;99.90
52439;DHT22;38359;53.150;6.504;2022-12-10T20:42:09;-0.40;99.90
52439;DHT22;38359;53.150;6.504;2022-12-10T20:52:35;-0.40;99.90
52439;DHT22;38359;53.150;6.504;2022-12-10T21:03:01;-0.50;99.90
52439;DHT22;38359;53.150;6.504;2022-12-10T21:13:28;-0.70;99.90
52439;DHT22;38359;53.150;6.504;2022-12-10T21:23:54;-0.90;99.90
52439;DHT22;38359;53.150;6.504;2022-12-10T21:34:20;-0.80;99.90
52439;DHT22;38359;53.150;6.504;2022-12-10T21:44:46;-0.60;99.90
52439;DHT22;38359;53.150;6.504;2022-12-10T21:55:17;-0.90;99.90
52439;DHT22;38359;53.150;6.504;2022-12-10T22:05:43;-0.90;99.90
52439;DHT22;38359;53.150;6.504;2022-12-10T22:16:09;-0.90;99.90
52439;DHT22;38359;53.150;6.504;2022-12-10T22:26:35;-0.80;99.90
52439;DHT22;38359;53.150;6.504;2022-12-10T22:37:01;-0.80;99.90
52439;DHT22;38359;53.150;6.504;2022-12-10T22:47:28;-0.40;99.90
52439;DHT22;38359;53.150;6.504;2022-12-10T22:57:54;-0.80;99.90
52439;DHT22;38359;53.150;6.504;2022-12-10T23:08:20;-1.00;99.90
52439;DHT22;38359;53.150;6.504;2022-12-10T23:18:46;-0.80;99.90
52439;DHT22;38359;53.150;6.504;2022-12-10T23:29:14;-0.60;99.90
52439;DHT22;38359;53.150;6.504;2022-12-10T23:39:40;-0.70;99.90
52439;DHT22;38359;53.150;6.504;2022-12-10T23:50:06;-0.70;99.90
